Time;durP1;ratioP1;P1;durP2;ratioP2;P2;SDS_P1;SDS_P2;PMS_P1;PMS_P2;Temp;Humidity;BMP_temperature;BMP_pressure;BME280_temperature;BME280_humidity;BME280_pressure;Samples;Min_cycle;Max_cycle;Signal;HPM_P1;HPM_P2
2022/03/23 00:00:28;;;;;;;166.45;61.83;;;;;;;;;;6237472;28;20974;-66
2022/03/23 00:03:42;;;;;;;179.32;62.05;;;;;;;;;;6237218;28;20049;-65
2022/03/23 00:06:44;;;;;;;173.00;59.00;;;;;;;;;;6236126;28;20045;-66
2022/03/23 00:09:45;;;;;;;163.10;58.72;;;;;;;;;;6235774;28;20045;-66
2022/03/23 00:12:45;;;;;;;182.13;61.03;;;;;;;;;;6234455;28;20572;-68
2022/03/23 00:15:47;;;;;;;174.52;59.22;;;;;;;;;;6231075;28;20076;-67
2022/03/23 00:18:47;;;;;;;168.05;59.42;;;;;;;;;;6236972;28;20046;-67
2022/03/23 00:21:48;;;;;;;160.48;53.92;;;;;;;;;;6236003;28;20154;-66
2022/03/23 00:24:49;;;;;;;161.18;56.35;;;;;;;;;;6231694;28;20091;-67
2022/03/23 00:27:49;;;;;;;176.07;59.67;;;;;;;;;;6233541;28;20064;-67
2022/03/23 00:30:50;;;;;;;176.93;59.53;;;;;;;;;;6236848;28;20053;-66
2022/03/23 00:33:51;;;;;;;154.70;56.17;;;;;;;;;;6235011;28;20042;-66
2022/03/23 00:36:52;;;;;;;169.43;57.00;;;;;;;;;;6236072;28;20462;-66
2022/03/23 00:39:52;;;;;;;168.90;56.92;;;;;;;;;;6237596;28;20124;-66
2022/03/23 00:42:53;;;;;;;166.18;54.40;;;;;;;;;;6235854;28;20050;-66
2022/03/23 00:45:54;;;;;;;167.05;57.40;;;;;;;;;;6235504;28;20231;-67
2022/03/23 00:48:55;;;;;;;181.15;61.28;;;;;;;;;;6236026;28;20106;-66
2022/03/23 00:51:56;;;;;;;181.48;59.60;;;;;;;;;;6236665;28;20408;-66
2022/03/23 00:54:57;;;;;;;160.52;59.63;;;;;;;;;;6236508;28;20061;-65
2022/03/23 00:57:58;;;;;;;146.73;49.70;;;;;;;;;;6237346;28;20061;-67
2022/03/23 01:01:00;;;;;;;178.35;59.58;;;;;;;;;;6234560;28;20140;-66
2022/03/23 01:04:00;;;;;;;187.90;62.13;;;;;;;;;;6236053;28;20053;-67
2022/03/23 01:07:01;;;;;;;181.15;62.65;;;;;;;;;;6236977;28;20163;-67
2022/03/23 01:10:04;;;;;;;178.13;60.70;;;;;;;;;;6237478;28;20095;-68
2022/03/23 01:13:04;;;;;;;175.48;60.83;;;;;;;;;;6233777;28;20058;-68
2022/03/23 01:16:05;;;;;;;180.70;61.97;;;;;;;;;;6236371;28;20427;-67
2022/03/23 01:19:06;;;;;;;181.55;62.53;;;;;;;;;;6235737;28;20122;-68
2022/03/23 01:22:07;;;;;;;192.02;67.85;;;;;;;;;;6234798;28;20041;-68
2022/03/23 01:25:09;;;;;;;186.23;63.25;;;;;;;;;;6233293;28;20496;-67
2022/03/23 01:28:09;;;;;;;182.80;62.63;;;;;;;;;;6238405;28;20080;-67
2022/03/23 01:31:10;;;;;;;183.85;60.40;;;;;;;;;;6243899;28;20334;-67
2022/03/23 01:34:11;;;;;;;187.05;64.28;;;;;;;;;;6244096;28;20052;-66
2022/03/23 01:37:11;;;;;;;188.07;65.95;;;;;;;;;;6246733;28;20175;-68
2022/03/23 01:40:12;;;;;;;193.68;66.45;;;;;;;;;;6241858;28;20045;-66
2022/03/23 01:43:13;;;;;;;198.45;68.50;;;;;;;;;;6243084;28;20179;-68
2022/03/23 01:46:18;;;;;;;191.50;70.60;;;;;;;;;;6243136;28;20085;-68
2022/03/23 01:49:19;;;;;;;201.65;72.22;;;;;;;;;;6241710;28;20507;-67
2022/03/23 01:52:22;;;;;;;193.35;67.05;;;;;;;;;;6242758;28;20045;-67
2022/03/23 01:55:23;;;;;;;175.95;63.10;;;;;;;;;;6245326;28;20053;-66
2022/03/23 01:58:25;;;;;;;169.88;64.45;;;;;;;;;;6242960;28;20053;-65
2022/03/23 02:01:26;;;;;;;;;;;;;;;;;;6244458;28;20499;-67
2022/03/23 02:04:27;;;;;;;171.73;60.40;;;;;;;;;;6243816;28;19921;-67
2022/03/23 02:07:27;;;;;;;188.63;63.10;;;;;;;;;;6242044;28;20144;-67
2022/03/23 02:10:28;;;;;;;185.20;66.68;;;;;;;;;;6243511;28;20487;-67
2022/03/23 02:13:29;;;;;;;199.57;70.13;;;;;;;;;;6246850;28;20575;-66
2022/03/23 02:16:29;;;;;;;199.15;70.80;;;;;;;;;;6249194;28;20071;-66
2022/03/23 02:19:30;;;;;;;209.05;73.57;;;;;;;;;;6248821;28;20128;-65
2022/03/23 02:22:30;;;;;;;196.23;71.63;;;;;;;;;;6244186;28;20049;-67
2022/03/23 02:25:31;;;;;;;211.18;81.20;;;;;;;;;;6239493;28;20148;-68
2022/03/23 02:28:32;;;;;;;199.05;72.07;;;;;;;;;;6244154;28;20049;-67
2022/03/23 02:31:34;;;;;;;200.10;71.97;;;;;;;;;;6242105;28;20516;-67
2022/03/23 02:34:35;;;;;;;201.90;71.32;;;;;;;;;;6242313;28;20503;-68
2022/03/23 02:37:35;;;;;;;194.20;69.82;;;;;;;;;;6241548;28;20124;-66
2022/03/23 02:40:36;;;;;;;210.70;72.78;;;;;;;;;;6239756;28;20128;-67
2022/03/23 02:43:37;;;;;;;202.40;76.07;;;;;;;;;;6238859;28;20120;-66
2022/03/23 02:46:37;;;;;;;195.32;70.70;;;;;;;;;;6235853;28;20037;-66
2022/03/23 02:49:39;;;;;;;183.65;62.05;;;;;;;;;;6242443;28;20064;-67
2022/03/23 03:01:52;;;;;;;169.07;66.07;;;;;;;;;;6239436;28;20569;-65
2022/03/23 03:02:57;;;;;;;189.65;67.53;;;;;;;;;;6305859;28;20043;-68
2022/03/23 03:05:58;;;;;;;215.85;75.85;;;;;;;;;;6313123;28;20524;-68
2022/03/23 03:08:59;;;;;;;213.25;76.38;;;;;;;;;;6313140;28;20079;-68
2022/03/23 03:12:01;;;;;;;271.02;89.07;;;;;;;;;;6311977;28;20052;-68
2022/03/23 03:15:02;;;;;;;;;;;;;;;;;;6316073;28;20511;-68
2022/03/23 03:18:03;;;;;;;212.20;76.32;;;;;;;;;;6311924;28;19924;-68
2022/03/23 03:21:06;;;;;;;212.93;74.93;;;;;;;;;;6313518;28;20121;-68
2022/03/23 03:24:07;;;;;;;198.68;75.60;;;;;;;;;;6309849;28;20917;-66
2022/03/23 03:27:09;;;;;;;213.50;80.43;;;;;;;;;;6315496;28;20063;-67
2022/03/23 03:30:12;;;;;;;207.68;70.45;;;;;;;;;;6312250;28;20070;-68
2022/03/23 03:33:13;;;;;;;225.38;78.75;;;;;;;;;;6311726;28;20147;-68
2022/03/23 03:36:15;;;;;;;213.10;75.75;;;;;;;;;;6312987;28;20044;-67
2022/03/23 03:39:15;;;;;;;219.20;79.93;;;;;;;;;;6309687;28;20174;-68
2022/03/23 03:42:17;;;;;;;226.43;82.85;;;;;;;;;;6311097;28;20086;-66
2022/03/23 03:45:18;;;;;;;210.15;79.75;;;;;;;;;;6312129;28;20418;-67
2022/03/23 03:48:18;;;;;;;200.95;77.63;;;;;;;;;;6311229;28;20078;-67
2022/03/23 03:51:21;;;;;;;204.88;75.22;;;;;;;;;;6310790;28;20513;-67
2022/03/23 03:54:22;;;;;;;206.90;76.38;;;;;;;;;;6309836;28;20047;-67
2022/03/23 03:57:23;;;;;;;190.00;72.97;;;;;;;;;;6310697;28;20052;-67
2022/03/23 04:00:23;;;;;;;208.90;76.53;;;;;;;;;;6310352;28;20126;-68
2022/03/23 04:03:24;;;;;;;218.15;75.95;;;;;;;;;;6311150;28;20044;-68
2022/03/23 04:06:25;;;;;;;196.20;76.00;;;;;;;;;;6311672;28;20048;-67
2022/03/23 04:09:25;;;;;;;188.30;75.93;;;;;;;;;;6311174;28;20044;-67
2022/03/23 04:12:26;;;;;;;207.95;74.38;;;;;;;;;;6311157;28;20048;-67
2022/03/23 04:15:27;;;;;;;201.65;74.60;;;;;;;;;;6311111;28;20040;-69
2022/03/23 04:18:27;;;;;;;193.00;69.57;;;;;;;;;;6310502;28;20131;-67
2022/03/23 04:21:28;;;;;;;195.50;71.53;;;;;;;;;;6315313;28;20110;-69
2022/03/23 04:24:28;;;;;;;180.25;70.22;;;;;;;;;;6308949;28;20123;-67
2022/03/23 04:27:29;;;;;;;199.25;73.28;;;;;;;;;;6309625;28;20055;-69
2022/03/23 04:30:31;;;;;;;207.95;75.57;;;;;;;;;;6308525;28;20039;-70
2022/03/23 04:33:32;;;;;;;195.38;73.32;;;;;;;;;;6309263;28;20512;-66
2022/03/23 04:36:33;;;;;;;189.93;71.68;;;;;;;;;;6312222;28;20047;-64
2022/03/23 04:39:35;;;;;;;206.45;73.38;;;;;;;;;;6312021;28;20127;-67
2022/03/23 04:42:37;;;;;;;190.73;73.40;;;;;;;;;;6311789;28;20039;-65
2022/03/23 04:45:37;;;;;;;189.68;71.82;;;;;;;;;;6310515;28;20047;-68
2022/03/23 04:48:38;;;;;;;188.07;71.15;;;;;;;;;;6306245;28;20406;-66
2022/03/23 04:51:39;;;;;;;177.20;70.63;;;;;;;;;;6313990;28;20044;-66
2022/03/23 04:54:39;;;;;;;169.57;65.28;;;;;;;;;;6314627;28;20131;-67
2022/03/23 04:57:40;;;;;;;184.60;69.65;;;;;;;;;;6316494;28;20048;-67
2022/03/23 05:00:41;;;;;;;192.05;70.72;;;;;;;;;;6313455;28;20091;-68
2022/03/23 05:03:42;;;;;;;182.88;69.28;;;;;;;;;;6315132;28;20048;-67
2022/03/23 05:06:42;;;;;;;187.75;71.32;;;;;;;;;;6311153;28;20485;-64
2022/03/23 05:09:43;;;;;;;189.82;68.45;;;;;;;;;;6312260;28;20055;-64
2022/03/23 05:12:45;;;;;;;181.23;67.78;;;;;;;;;;6314933;28;20028;-67
2022/03/23 05:15:46;;;;;;;178.75;66.63;;;;;;;;;;6315905;28;20059;-67
2022/03/23 05:18:47;;;;;;;179.15;68.50;;;;;;;;;;6315506;28;20457;-67
2022/03/23 05:21:47;;;;;;;196.18;71.38;;;;;;;;;;6316411;28;20539;-64
2022/03/23 05:24:48;;;;;;;183.48;70.47;;;;;;;;;;6314963;28;20562;-68
2022/03/23 05:27:49;;;;;;;181.65;69.18;;;;;;;;;;6312299;28;20043;-64
2022/03/23 05:30:49;;;;;;;176.90;67.68;;;;;;;;;;6313191;28;20630;-68
2022/03/23 05:33:50;;;;;;;215.07;76.43;;;;;;;;;;6312117;28;20508;-68
2022/03/23 05:36:50;;;;;;;230.90;80.32;;;;;;;;;;6312058;28;20068;-67
2022/03/23 05:39:52;;;;;;;271.15;88.38;;;;;;;;;;6313297;28;20044;-67
2022/03/23 05:42:53;;;;;;;254.40;85.53;;;;;;;;;;6315590;28;20082;-67
2022/03/23 05:45:53;;;;;;;222.65;84.13;;;;;;;;;;6315357;28;20474;-67
2022/03/23 05:48:54;;;;;;;243.23;84.90;;;;;;;;;;6314936;28;20474;-67
2022/03/23 05:51:55;;;;;;;224.65;83.68;;;;;;;;;;6315727;28;20067;-66
2022/03/23 05:54:56;;;;;;;221.82;83.03;;;;;;;;;;6315165;28;20101;-67
2022/03/23 05:57:57;;;;;;;235.40;89.33;;;;;;;;;;6314523;28;20044;-68
2022/03/23 06:00:57;;;;;;;226.05;84.03;;;;;;;;;;6314453;28;20494;-67
2022/03/23 06:03:58;;;;;;;215.63;85.57;;;;;;;;;;6314305;28;20051;-65
2022/03/23 06:06:59;;;;;;;187.85;76.07;;;;;;;;;;6315566;28;20085;-65
2022/03/23 06:10:00;;;;;;;186.98;75.72;;;;;;;;;;6314105;28;20055;-65
2022/03/23 06:13:01;;;;;;;182.95;72.90;;;;;;;;;;6302590;28;20059;-66
2022/03/23 06:16:01;;;;;;;169.77;69.40;;;;;;;;;;6310631;28;20048;-67
2022/03/23 06:19:02;;;;;;;181.45;72.55;;;;;;;;;;6318487;28;20134;-67
2022/03/23 06:22:05;;;;;;;163.85;66.32;;;;;;;;;;6320381;28;20392;-64
2022/03/23 06:25:07;;;;;;;161.45;67.88;;;;;;;;;;6319162;28;20501;-69
2022/03/23 06:28:08;;;;;;;;;;;;;;;;;;6321342;28;20055;-67
2022/03/23 06:31:08;;;;;;;152.57;63.45;;;;;;;;;;6319777;28;19959;-67
2022/03/23 06:34:10;;;;;;;160.95;61.72;;;;;;;;;;6317763;28;20058;-67
2022/03/23 06:37:11;;;;;;;164.27;62.10;;;;;;;;;;6318965;28;20055;-67
2022/03/23 06:40:11;;;;;;;170.18;66.32;;;;;;;;;;6319673;28;20328;-69
2022/03/23 06:43:12;;;;;;;158.32;65.93;;;;;;;;;;6319005;28;20647;-75
2022/03/23 06:46:13;;;;;;;174.25;67.22;;;;;;;;;;6318576;28;20127;-64
2022/03/23 06:49:14;;;;;;;161.15;65.68;;;;;;;;;;6318549;28;20505;-67
2022/03/23 06:52:15;;;;;;;158.00;62.92;;;;;;;;;;6319263;28;20052;-64
2022/03/23 06:55:16;;;;;;;158.23;63.83;;;;;;;;;;6320113;28;20059;-67
2022/03/23 06:58:16;;;;;;;162.30;65.32;;;;;;;;;;6318331;28;20052;-67
2022/03/23 07:01:17;;;;;;;173.50;67.80;;;;;;;;;;6312396;28;20040;-67
2022/03/23 07:04:17;;;;;;;158.93;63.75;;;;;;;;;;6312038;28;20458;-67
2022/03/23 07:07:19;;;;;;;141.98;59.50;;;;;;;;;;6312448;28;20122;-65
2022/03/23 07:10:20;;;;;;;148.95;58.65;;;;;;;;;;6313365;28;20040;-67
2022/03/23 07:13:21;;;;;;;158.75;62.10;;;;;;;;;;6316661;28;20497;-67
2022/03/23 07:16:21;;;;;;;152.52;57.38;;;;;;;;;;6316756;28;20453;-67
2022/03/23 07:19:22;;;;;;;149.52;62.20;;;;;;;;;;6317258;28;20048;-67
2022/03/23 07:22:23;;;;;;;154.30;61.63;;;;;;;;;;6312599;28;20052;-66
2022/03/23 07:25:24;;;;;;;151.93;54.15;;;;;;;;;;6314165;28;20398;-65
2022/03/23 07:28:25;;;;;;;132.68;55.00;;;;;;;;;;6311394;28;20452;-67
2022/03/23 07:31:26;;;;;;;136.18;57.30;;;;;;;;;;6312145;28;20469;-66
2022/03/23 07:34:27;;;;;;;136.45;54.33;;;;;;;;;;6311790;28;20058;-69
2022/03/23 07:37:27;;;;;;;128.43;52.03;;;;;;;;;;6310441;28;20048;-67
2022/03/23 07:40:28;;;;;;;125.18;51.05;;;;;;;;;;6312187;28;20130;-68
2022/03/23 07:43:28;;;;;;;126.80;51.33;;;;;;;;;;6310944;28;20050;-63
2022/03/23 07:46:30;;;;;;;132.77;53.25;;;;;;;;;;6312018;28;20047;-63
2022/03/23 07:49:31;;;;;;;134.23;54.33;;;;;;;;;;6313345;28;20044;-66
2022/03/23 07:52:32;;;;;;;139.85;54.63;;;;;;;;;;6309532;28;20044;-66
2022/03/23 07:55:32;;;;;;;158.63;58.65;;;;;;;;;;6311746;28;20111;-66
2022/03/23 07:58:33;;;;;;;140.23;54.00;;;;;;;;;;6310683;28;20050;-66
2022/03/23 08:01:34;;;;;;;153.90;57.35;;;;;;;;;;6312757;28;20468;-67
2022/03/23 08:04:35;;;;;;;130.20;50.45;;;;;;;;;;6309292;28;20097;-65
2022/03/23 08:07:36;;;;;;;185.67;62.33;;;;;;;;;;6310358;28;20054;-67
2022/03/23 08:10:41;;;;;;;189.23;64.32;;;;;;;;;;6314086;28;20453;-65
2022/03/23 08:13:42;;;;;;;180.15;62.22;;;;;;;;;;6314186;28;20050;-64
2022/03/23 08:16:42;;;;;;;218.80;70.65;;;;;;;;;;6316176;28;20306;-65
2022/03/23 08:19:43;;;;;;;167.48;61.25;;;;;;;;;;6316360;28;20139;-64
2022/03/23 08:22:44;;;;;;;144.77;54.92;;;;;;;;;;6315711;28;20051;-63
2022/03/23 08:25:45;;;;;;;153.60;57.20;;;;;;;;;;6316504;28;20076;-64
2022/03/23 08:28:47;;;;;;;161.15;55.58;;;;;;;;;;6313909;28;20044;-67
2022/03/23 08:31:47;;;;;;;135.48;53.25;;;;;;;;;;6315905;28;20056;-64
2022/03/23 08:34:49;;;;;;;134.18;51.30;;;;;;;;;;6314898;28;20834;-64
2022/03/23 08:37:51;;;;;;;127.40;49.58;;;;;;;;;;6314241;28;20482;-63
2022/03/23 08:40:51;;;;;;;118.40;47.20;;;;;;;;;;6314660;28;20048;-65
2022/03/23 08:43:52;;;;;;;127.47;47.85;;;;;;;;;;6315463;28;20151;-64
2022/03/23 08:46:53;;;;;;;143.48;50.90;;;;;;;;;;6313806;28;20040;-65
2022/03/23 08:49:55;;;;;;;137.15;47.85;;;;;;;;;;6315571;28;20079;-65
2022/03/23 08:52:56;;;;;;;114.75;43.47;;;;;;;;;;6314686;28;20043;-65
2022/03/23 08:55:57;;;;;;;118.78;43.38;;;;;;;;;;6315520;28;20134;-66
2022/03/23 08:58:58;;;;;;;106.43;42.25;;;;;;;;;;6312350;28;20047;-67
2022/03/23 09:01:59;;;;;;;113.95;42.75;;;;;;;;;;6309856;28;20135;-66
2022/03/23 09:04:59;;;;;;;106.72;40.95;;;;;;;;;;6311286;28;20513;-67
2022/03/23 09:08:01;;;;;;;109.30;40.08;;;;;;;;;;6311413;28;20130;-66
2022/03/23 09:11:02;;;;;;;113.50;41.42;;;;;;;;;;6311366;28;20040;-69
2022/03/23 09:14:03;;;;;;;101.00;40.53;;;;;;;;;;6311544;28;20151;-69
2022/03/23 09:17:04;;;;;;;102.05;40.20;;;;;;;;;;6312986;28;20055;-66
2022/03/23 09:20:06;;;;;;;99.90;38.92;;;;;;;;;;6310472;28;20052;-65
2022/03/23 09:23:08;;;;;;;92.70;37.17;;;;;;;;;;6309972;28;20072;-67
2022/03/23 09:26:10;;;;;;;;;;;;;;;;;;6311256;28;20051;-66
2022/03/23 09:29:10;;;;;;;93.85;35.80;;;;;;;;;;6312185;28;20330;-64
2022/03/23 09:32:12;;;;;;;88.05;31.65;;;;;;;;;;6311071;28;20048;-66
2022/03/23 09:35:16;;;;;;;65.43;25.70;;;;;;;;;;6310869;28;20433;-65
2022/03/23 09:38:17;;;;;;;69.50;28.40;;;;;;;;;;6310366;28;20070;-69
2022/03/23 09:41:18;;;;;;;78.47;29.27;;;;;;;;;;6313092;28;20079;-66
2022/03/23 09:44:20;;;;;;;66.70;28.13;;;;;;;;;;6312636;28;20116;-66
2022/03/23 09:47:22;;;;;;;66.50;26.98;;;;;;;;;;6313959;28;20067;-68
2022/03/23 09:50:27;;;;;;;64.28;27.67;;;;;;;;;;6318123;28;20075;-66
2022/03/23 09:53:28;;;;;;;67.63;28.63;;;;;;;;;;6316603;28;20059;-66
2022/03/23 09:56:29;;;;;;;70.05;27.88;;;;;;;;;;6316060;28;20505;-65
2022/03/23 09:59:29;;;;;;;62.42;26.55;;;;;;;;;;6315861;28;20135;-65
2022/03/23 10:02:50;;;;;;;61.28;25.52;;;;;;;;;;6315413;28;20052;-65
2022/03/23 10:06:16;;;;;;;59.75;25.55;;;;;;;;;;6314974;28;20044;-65
2022/03/23 10:09:26;;;;;;;62.25;24.42;;;;;;;;;;6312797;28;20052;-66
2022/03/23 10:13:04;;;;;;;68.53;26.63;;;;;;;;;;6320013;28;20089;-65
2022/03/23 10:16:40;;;;;;;54.85;25.08;;;;;;;;;;6300917;28;20048;-65
2022/03/23 10:19:42;;;;;;;58.63;25.25;;;;;;;;;;6319361;28;20105;-69
2022/03/23 10:22:49;;;;;;;66.22;26.63;;;;;;;;;;6316954;28;20463;-70
2022/03/23 10:25:50;;;;;;;66.90;28.73;;;;;;;;;;6314826;28;20091;-65
2022/03/23 10:28:51;;;;;;;76.93;30.17;;;;;;;;;;6317837;28;20055;-65
2022/03/23 10:32:00;;;;;;;65.72;28.67;;;;;;;;;;6315617;28;20523;-64
2022/03/23 10:35:02;;;;;;;68.85;28.98;;;;;;;;;;6313763;28;20052;-64
2022/03/23 10:38:16;;;;;;;69.47;30.80;;;;;;;;;;6314437;28;20056;-66
2022/03/23 10:41:26;;;;;;;70.47;30.50;;;;;;;;;;6312226;28;20047;-65
2022/03/23 10:44:27;;;;;;;55.92;25.67;;;;;;;;;;6314013;28;20067;-64
2022/03/23 10:47:34;;;;;;;39.78;17.67;;;;;;;;;;6312706;28;20043;-68
2022/03/23 10:50:35;;;;;;;39.38;15.57;;;;;;;;;;6312955;28;20068;-65
2022/03/23 10:53:41;;;;;;;28.25;12.65;;;;;;;;;;6312575;28;20048;-66
2022/03/23 10:56:42;;;;;;;35.70;14.48;;;;;;;;;;6312604;28;20499;-66
2022/03/23 10:59:45;;;;;;;26.63;13.63;;;;;;;;;;6311284;28;20050;-66
2022/03/23 11:02:47;;;;;;;30.90;12.80;;;;;;;;;;6314083;28;20055;-66
2022/03/23 11:05:49;;;;;;;32.58;12.95;;;;;;;;;;6309632;28;20050;-63
2022/03/23 11:08:51;;;;;;;23.90;9.43;;;;;;;;;;6311657;28;20067;-63
2022/03/23 11:18:34;;;;;;;17.38;8.43;;;;;;;;;;6311523;28;20051;-65
2022/03/23 11:21:57;;;;;;;14.55;6.88;;;;;;;;;;6315747;28;20089;-71
2022/03/23 11:24:58;;;;;;;19.70;9.10;;;;;;;;;;6314244;28;20058;-66
2022/03/23 12:43:46;;;;;;;29.58;14.25;;;;;;;;;;6295932;27;20399;-68
2022/03/23 12:46:48;;;;;;;30.45;13.57;;;;;;;;;;6288417;28;20040;-70
2022/03/23 12:59:52;;;;;;;28.58;13.20;;;;;;;;;;6288713;28;20484;-70
2022/03/23 13:03:07;;;;;;;28.37;13.70;;;;;;;;;;6287637;28;20063;-71
2022/03/23 13:06:08;;;;;;;27.95;12.43;;;;;;;;;;6286607;28;20059;-70
2022/03/23 13:09:10;;;;;;;29.03;13.07;;;;;;;;;;6288028;28;20076;-72
2022/03/23 13:12:10;;;;;;;27.58;13.98;;;;;;;;;;6287847;28;20827;-70
2022/03/23 13:15:12;;;;;;;29.30;13.73;;;;;;;;;;6285226;28;20076;-70
2022/03/23 13:18:14;;;;;;;28.33;13.25;;;;;;;;;;6286887;28;20106;-72
2022/03/23 13:21:21;;;;;;;28.77;12.52;;;;;;;;;;6287485;28;20051;-73
2022/03/23 13:24:25;;;;;;;24.73;12.50;;;;;;;;;;6286439;28;20487;-72
2022/03/23 13:27:27;;;;;;;26.05;12.48;;;;;;;;;;6283097;28;20143;-69
2022/03/23 13:30:33;;;;;;;29.73;13.63;;;;;;;;;;6285562;28;20049;-73
2022/03/23 13:33:38;;;;;;;29.23;12.95;;;;;;;;;;6285291;28;20049;-74
2022/03/23 13:36:47;;;;;;;26.75;13.32;;;;;;;;;;6283946;28;20048;-70
2022/03/23 13:39:48;;;;;;;27.75;11.88;;;;;;;;;;6299688;28;20079;-68
2022/03/23 13:46:09;;;;;;;25.25;12.43;;;;;;;;;;6270182;28;20051;-72
2022/03/23 13:49:12;;;;;;;25.80;12.43;;;;;;;;;;6269391;28;20061;-72
2022/03/23 13:52:16;;;;;;;24.23;10.98;;;;;;;;;;6271005;28;20045;-62
2022/03/23 13:55:17;;;;;;;23.20;11.35;;;;;;;;;;6270945;28;20431;-61
2022/03/23 13:58:24;;;;;;;27.52;12.98;;;;;;;;;;6268888;28;20483;-70
2022/03/23 14:01:26;;;;;;;31.20;12.95;;;;;;;;;;6271034;28;20502;-69
2022/03/23 14:04:29;;;;;;;25.75;11.98;;;;;;;;;;6269961;28;20136;-72
2022/03/23 14:07:30;;;;;;;25.42;11.73;;;;;;;;;;6269919;28;20060;-69
2022/03/23 14:10:33;;;;;;;28.70;12.67;;;;;;;;;;6257126;28;20559;-59
2022/03/23 14:13:40;;;;;;;28.25;12.82;;;;;;;;;;6257901;28;20144;-64
2022/03/23 14:16:56;;;;;;;26.27;12.10;;;;;;;;;;6257520;28;20056;-59
2022/03/23 14:19:58;;;;;;;28.25;12.68;;;;;;;;;;6256554;28;20076;-70
2022/03/23 14:22:59;;;;;;;26.63;13.00;;;;;;;;;;6261951;28;20071;-62
2022/03/23 14:26:32;;;;;;;27.33;13.60;;;;;;;;;;6261275;28;20053;-72
2022/03/23 14:29:32;;;;;;;29.27;13.95;;;;;;;;;;6257404;28;20056;-66
2022/03/23 14:32:50;;;;;;;28.03;13.47;;;;;;;;;;6257892;28;20045;-72
2022/03/23 14:35:50;;;;;;;29.50;13.10;;;;;;;;;;6260494;28;20109;-74
2022/03/23 14:38:51;;;;;;;24.33;12.60;;;;;;;;;;6259787;28;20064;-71
2022/03/23 14:41:59;;;;;;;26.43;12.40;;;;;;;;;;6255261;28;20117;-74
2022/03/23 14:45:01;;;;;;;30.13;13.13;;;;;;;;;;6258893;28;20494;-66
2022/03/23 14:48:17;;;;;;;27.15;13.02;;;;;;;;;;6260252;28;20041;-59
2022/03/23 14:51:17;;;;;;;25.98;12.40;;;;;;;;;;6258440;28;20143;-72
2022/03/23 14:54:19;;;;;;;23.60;11.87;;;;;;;;;;6257337;28;20061;-68
2022/03/23 14:57:20;;;;;;;25.83;12.05;;;;;;;;;;6259601;28;20052;-72
2022/03/23 15:00:20;;;;;;;23.83;11.87;;;;;;;;;;6257347;28;20160;-69
2022/03/23 15:03:21;;;;;;;22.73;11.63;;;;;;;;;;6256947;28;20053;-59
2022/03/23 15:13:15;;;;;;;22.80;11.35;;;;;;;;;;6260093;28;20059;-66
2022/03/23 15:16:17;;;;;;;25.17;10.93;;;;;;;;;;6256645;28;20060;-58
2022/03/23 15:19:17;;;;;;;23.30;10.50;;;;;;;;;;6260236;28;20171;-58
2022/03/23 15:22:18;;;;;;;20.87;10.57;;;;;;;;;;6256797;28;20317;-67
2022/03/23 15:25:18;;;;;;;20.17;10.90;;;;;;;;;;6258475;28;20080;-70
2022/03/23 15:28:20;;;;;;;22.03;11.10;;;;;;;;;;6257349;28;20056;-60
2022/03/23 15:31:21;;;;;;;20.02;10.70;;;;;;;;;;6257227;28;20086;-62
2022/03/23 15:34:22;;;;;;;25.23;11.48;;;;;;;;;;6258441;28;20072;-69
2022/03/23 15:37:22;;;;;;;17.47;9.93;;;;;;;;;;6256976;28;20071;-66
2022/03/23 15:40:26;;;;;;;20.30;10.17;;;;;;;;;;6257134;28;20088;-69
2022/03/23 15:43:27;;;;;;;17.58;8.60;;;;;;;;;;6258772;28;20057;-64
2022/03/23 15:46:28;;;;;;;22.90;8.68;;;;;;;;;;6256781;28;20053;-63
2022/03/23 15:49:29;;;;;;;17.53;8.23;;;;;;;;;;6258503;28;20460;-62
2022/03/23 15:52:30;;;;;;;18.43;7.93;;;;;;;;;;6257361;28;20112;-59
2022/03/23 15:55:31;;;;;;;25.38;8.60;;;;;;;;;;6257364;28;20053;-67
2022/03/23 15:58:32;;;;;;;20.75;8.07;;;;;;;;;;6258476;28;20516;-60
2022/03/23 16:01:33;;;;;;;17.40;7.60;;;;;;;;;;6256507;28;20060;-58
2022/03/23 16:04:34;;;;;;;16.17;7.00;;;;;;;;;;6255632;28;20518;-62
2022/03/23 16:07:34;;;;;;;15.90;7.10;;;;;;;;;;6256633;28;20049;-59
2022/03/23 16:10:36;;;;;;;16.30;7.47;;;;;;;;;;6256633;28;20045;-65
2022/03/23 16:13:37;;;;;;;16.95;6.75;;;;;;;;;;6258401;28;20510;-59
2022/03/23 16:16:37;;;;;;;15.83;6.80;;;;;;;;;;6256143;28;20461;-69
2022/03/23 16:19:38;;;;;;;17.10;6.37;;;;;;;;;;6257186;28;20105;-72
2022/03/23 16:22:39;;;;;;;16.37;7.00;;;;;;;;;;6257228;28;20518;-60
2022/03/23 16:25:39;;;;;;;17.90;8.87;;;;;;;;;;6252906;28;20071;-59
2022/03/23 16:28:40;;;;;;;14.73;7.73;;;;;;;;;;6261385;28;20896;-66
2022/03/23 16:31:40;;;;;;;17.07;7.77;;;;;;;;;;6259861;28;20506;-59
2022/03/23 16:34:41;;;;;;;15.87;7.60;;;;;;;;;;6263167;28;20045;-68
2022/03/23 16:37:45;;;;;;;15.20;6.93;;;;;;;;;;6258925;28;20051;-70
2022/03/23 16:40:47;;;;;;;21.63;9.60;;;;;;;;;;6262430;28;20645;-72
2022/03/23 16:43:48;;;;;;;;;;;;;;;;;;6266561;28;20048;-72
2022/03/23 16:46:49;;;;;;;26.63;11.30;;;;;;;;;;6259878;28;20097;-67
2022/03/23 16:49:51;;;;;;;26.13;13.15;;;;;;;;;;6262699;28;20048;-67
2022/03/23 16:52:53;;;;;;;41.70;16.85;;;;;;;;;;6262168;28;20072;-68
2022/03/23 16:55:54;;;;;;;41.55;16.98;;;;;;;;;;6265596;28;20379;-72
2022/03/23 16:59:00;;;;;;;59.13;20.77;;;;;;;;;;6269406;28;20237;-67
2022/03/23 17:02:01;;;;;;;62.88;23.45;;;;;;;;;;6263574;28;20056;-59
2022/03/23 17:15:06;;;;;;;96.82;38.58;;;;;;;;;;6264932;28;20048;-64
2022/03/23 17:18:07;;;;;;;104.95;38.53;;;;;;;;;;6266706;28;20080;-71
2022/03/23 17:21:08;;;;;;;74.90;30.60;;;;;;;;;;6262150;28;20141;-64
2022/03/23 17:24:09;;;;;;;80.47;34.63;;;;;;;;;;6268160;28;20057;-58
2022/03/23 17:27:09;;;;;;;58.28;26.20;;;;;;;;;;6262566;28;20056;-60
2022/03/23 17:30:11;;;;;;;76.25;32.00;;;;;;;;;;6264608;28;20493;-63
2022/03/23 17:33:11;;;;;;;78.47;34.60;;;;;;;;;;6266496;28;20060;-58
2022/03/23 17:36:12;;;;;;;90.47;38.28;;;;;;;;;;6265742;28;20499;-69
2022/03/23 17:39:12;;;;;;;88.07;37.58;;;;;;;;;;6272420;28;20044;-58
2022/03/23 17:42:16;;;;;;;93.93;39.67;;;;;;;;;;6259667;28;20645;-72
2022/03/23 17:45:16;;;;;;;105.13;47.15;;;;;;;;;;6263838;28;20049;-68
2022/03/23 17:48:17;;;;;;;111.20;48.47;;;;;;;;;;6261521;28;20717;-69
2022/03/23 17:51:18;;;;;;;97.20;42.45;;;;;;;;;;6260173;28;20573;-59
2022/03/23 17:54:18;;;;;;;93.63;39.40;;;;;;;;;;6258381;28;20168;-63
2022/03/23 17:57:19;;;;;;;126.70;45.28;;;;;;;;;;6260048;28;20535;-64
2022/03/23 18:00:20;;;;;;;192.90;67.57;;;;;;;;;;6267159;28;20054;-63
2022/03/23 18:03:21;;;;;;;165.57;60.88;;;;;;;;;;6265601;28;21291;-59
2022/03/23 18:06:24;;;;;;;165.65;62.50;;;;;;;;;;6266024;28;20061;-62
2022/03/23 18:09:25;;;;;;;175.68;66.50;;;;;;;;;;6263095;28;20064;-61
2022/03/23 18:12:26;;;;;;;197.02;70.10;;;;;;;;;;6268344;28;20061;-59
2022/03/23 18:15:27;;;;;;;190.88;65.95;;;;;;;;;;6269394;28;20045;-61
2022/03/23 18:18:28;;;;;;;186.05;61.88;;;;;;;;;;6264844;28;20052;-65
2022/03/23 18:21:28;;;;;;;221.38;67.07;;;;;;;;;;6260718;28;20059;-60
2022/03/23 18:24:29;;;;;;;246.27;72.13;;;;;;;;;;6268217;28;20118;-56
2022/03/23 18:27:30;;;;;;;211.57;56.78;;;;;;;;;;6268153;28;20052;-59
2022/03/23 18:30:32;;;;;;;134.45;40.92;;;;;;;;;;6266426;28;20056;-65
2022/03/23 18:33:32;;;;;;;164.27;47.50;;;;;;;;;;6267138;28;20107;-71
2022/03/23 18:36:34;;;;;;;130.15;41.08;;;;;;;;;;6267888;28;20059;-63
2022/03/23 18:39:34;;;;;;;136.02;45.22;;;;;;;;;;6261909;28;20055;-60
2022/03/23 18:42:36;;;;;;;173.75;54.25;;;;;;;;;;6266112;28;20048;-59
2022/03/23 18:45:38;;;;;;;202.07;57.75;;;;;;;;;;6265394;28;20494;-68
2022/03/23 18:48:40;;;;;;;292.08;72.13;;;;;;;;;;6264228;28;20061;-59
2022/03/23 18:51:40;;;;;;;341.88;80.32;;;;;;;;;;6266547;28;20040;-64
2022/03/23 18:54:41;;;;;;;346.13;83.18;;;;;;;;;;6263596;28;20502;-66
2022/03/23 18:57:43;;;;;;;307.98;77.78;;;;;;;;;;6267103;28;20053;-66
2022/03/23 19:00:44;;;;;;;352.20;84.65;;;;;;;;;;6261869;28;20072;-60
2022/03/23 19:03:45;;;;;;;369.92;86.38;;;;;;;;;;6268162;28;20446;-59
2022/03/23 19:06:46;;;;;;;315.90;73.17;;;;;;;;;;6265024;28;20080;-70
2022/03/23 19:09:46;;;;;;;298.65;72.30;;;;;;;;;;6262943;28;20422;-61
2022/03/23 19:12:47;;;;;;;219.82;54.90;;;;;;;;;;6262750;28;20549;-57
2022/03/23 19:15:49;;;;;;;209.40;53.15;;;;;;;;;;6261598;28;20060;-68
2022/03/23 19:18:50;;;;;;;307.05;74.55;;;;;;;;;;6265069;28;20211;-61
2022/03/23 19:21:51;;;;;;;267.55;65.68;;;;;;;;;;6260429;28;20049;-63
2022/03/23 19:24:51;;;;;;;223.65;59.00;;;;;;;;;;6264404;28;20538;-51
2022/03/23 19:27:52;;;;;;;224.75;56.92;;;;;;;;;;6267396;28;20189;-54
2022/03/23 19:30:52;;;;;;;220.15;56.53;;;;;;;;;;6261939;28;20420;-64